createdAt,value
2023-01-23T00:01:41.325Z,6.50
2023-01-23T00:04:09.890Z,6.88
2023-01-23T00:06:38.061Z,4.28
2023-01-23T00:09:06.793Z,6.32
2023-01-23T00:11:35.239Z,4.95
2023-01-23T00:14:04.320Z,5.60
2023-01-23T00:16:33.958Z,6.03
2023-01-23T00:19:04.844Z,2.10
2023-01-23T00:21:33.063Z,5.05
2023-01-23T00:24:05.280Z,2.85
2023-01-23T00:26:34.361Z,3.72
2023-01-23T00:29:04.103Z,2.90
2023-01-23T00:31:34.886Z,4.13
2023-01-23T00:34:11.288Z,1.58
2023-01-23T00:36:40.981Z,2.05
2023-01-23T00:39:13.575Z,4.47
2023-01-23T00:41:42.345Z,7.35
2023-01-23T00:44:10.531Z,3.78
2023-01-23T00:46:38.629Z,2.38
2023-01-23T00:49:08.710Z,3.85
2023-01-23T00:51:37.086Z,3.03
2023-01-23T00:54:05.484Z,3.00
2023-01-23T00:56:33.909Z,8.10
2023-01-23T00:59:03.314Z,3.22
2023-01-23T01:01:32.853Z,4.68
2023-01-23T01:04:01.726Z,3.10
2023-01-23T01:06:31.516Z,6.55
2023-01-23T01:09:00.899Z,9.90
2023-01-23T01:11:29.652Z,10.68
2023-01-23T01:13:58.152Z,6.10
2023-01-23T01:16:26.425Z,3.53
2023-01-23T01:18:54.814Z,7.82
2023-01-23T01:21:23.506Z,4.68
2023-01-23T01:23:53.000Z,5.95
2023-01-23T01:26:23.091Z,7.78
2023-01-23T01:28:51.228Z,4.80
2023-01-23T01:31:19.478Z,9.30
2023-01-23T01:33:48.388Z,11.15
2023-01-23T01:36:19.244Z,10.30
2023-01-23T01:38:47.522Z,8.88
2023-01-23T01:41:18.211Z,9.77
2023-01-23T01:43:46.829Z,5.00
2023-01-23T01:46:20.188Z,9.00
2023-01-23T01:48:56.747Z,9.15
2023-01-23T01:51:31.274Z,5.32
2023-01-23T01:54:08.357Z,9.35
2023-01-23T01:56:42.953Z,6.38
2023-01-23T01:59:14.443Z,10.40
2023-01-23T02:01:48.769Z,6.03
2023-01-23T02:04:17.032Z,4.32
2023-01-23T02:06:45.340Z,7.03
2023-01-23T02:09:18.804Z,8.32
2023-01-23T02:11:48.498Z,8.00
2023-01-23T02:14:16.698Z,12.88
2023-01-23T02:16:50.617Z,7.40
2023-01-23T02:19:32.516Z,8.68
2023-01-23T02:22:10.335Z,11.85
2023-01-23T02:24:44.066Z,4.15
2023-01-23T02:27:13.626Z,4.80
2023-01-23T02:29:43.538Z,9.15
2023-01-23T02:32:12.231Z,6.28
2023-01-23T02:34:40.304Z,11.48
2023-01-23T02:37:10.252Z,6.80
2023-01-23T02:39:39.713Z,7.68
2023-01-23T02:42:08.112Z,5.90
2023-01-23T02:44:37.702Z,6.57
2023-01-23T02:47:11.886Z,5.88
2023-01-23T02:49:40.533Z,6.88
2023-01-23T02:52:09.878Z,8.93
2023-01-23T02:54:39.645Z,12.93
2023-01-23T02:57:07.905Z,14.15
2023-01-23T02:59:55.094Z,8.63
2023-01-23T03:02:23.640Z,11.02
2023-01-23T03:04:54.619Z,10.63
2023-01-23T03:07:22.875Z,16.27
2023-01-23T03:09:51.187Z,12.93
2023-01-23T03:12:19.491Z,16.85
2023-01-23T03:14:53.865Z,9.35
2023-01-23T03:17:22.556Z,4.40
2023-01-23T03:19:52.353Z,9.50
2023-01-23T03:22:20.568Z,8.30
2023-01-23T03:24:48.693Z,9.93
2023-01-23T03:27:16.928Z,8.55
2023-01-23T03:30:02.904Z,11.93
2023-01-23T03:32:32.389Z,12.40
2023-01-23T03:35:00.705Z,7.03
2023-01-23T03:37:31.858Z,9.93
2023-01-23T03:40:17.700Z,9.40
2023-01-23T03:42:45.966Z,7.85
2023-01-23T03:45:14.455Z,17.08
2023-01-23T03:47:44.532Z,5.53
2023-01-23T03:52:40.632Z,7.47
2023-01-23T03:55:09.410Z,4.88
2023-01-23T03:57:37.797Z,8.52
2023-01-23T04:00:07.396Z,4.50
2023-01-23T04:02:35.499Z,3.75
2023-01-23T04:05:05.377Z,6.32
2023-01-23T04:07:36.460Z,6.28
2023-01-23T04:10:04.833Z,9.93
2023-01-23T04:12:32.897Z,6.85
2023-01-23T04:15:01.064Z,3.60
2023-01-23T04:17:29.134Z,8.05
2023-01-23T04:19:57.320Z,4.80
2023-01-23T04:22:26.957Z,4.00
2023-01-23T04:24:55.011Z,4.10
2023-01-23T04:27:23.159Z,9.73
2023-01-23T04:29:51.462Z,5.47
2023-01-23T04:32:19.560Z,2.30
2023-01-23T04:34:47.638Z,8.02
2023-01-23T04:37:15.808Z,7.38
2023-01-23T04:39:45.627Z,8.00
2023-01-23T04:42:14.170Z,2.88
2023-01-23T04:44:42.640Z,6.78
2023-01-23T04:47:11.052Z,5.70
2023-01-23T04:49:39.521Z,3.72
2023-01-23T04:52:08.040Z,4.45
2023-01-23T04:54:36.493Z,5.00
2023-01-23T04:57:06.254Z,2.90
2023-01-23T04:59:34.459Z,4.07
2023-01-23T05:02:05.462Z,12.18
2023-01-23T05:04:33.825Z,2.55
2023-01-23T05:07:02.076Z,7.60
2023-01-23T05:09:30.297Z,3.33
2023-01-23T05:11:58.677Z,13.18
2023-01-23T05:14:28.464Z,6.07
2023-01-23T05:16:56.917Z,11.68
2023-01-23T05:19:25.106Z,4.88
2023-01-23T05:21:53.446Z,5.85
2023-01-23T05:24:21.791Z,5.55
2023-01-23T05:26:50.118Z,8.18
2023-01-23T05:29:18.483Z,5.78
2023-01-23T05:31:48.345Z,5.20
2023-01-23T05:34:16.576Z,6.97
2023-01-23T05:36:45.031Z,11.35
2023-01-23T05:39:13.259Z,7.25
2023-01-23T05:41:50.561Z,9.57
2023-01-23T05:44:20.346Z,4.60
2023-01-23T05:46:50.000Z,6.53
2023-01-23T05:49:18.248Z,4.63
2023-01-23T05:51:46.632Z,7.95
2023-01-23T05:54:15.084Z,6.53
2023-01-23T05:56:43.358Z,3.13
2023-01-23T05:59:12.026Z,4.82
2023-01-23T06:01:40.243Z,6.65
2023-01-23T06:04:10.123Z,4.15
2023-01-23T06:06:38.387Z,3.70
2023-01-23T06:09:06.647Z,3.83
2023-01-23T06:11:37.308Z,3.63
2023-01-23T06:14:05.733Z,10.30
2023-01-23T06:16:33.907Z,4.32
2023-01-23T06:19:02.493Z,4.47
2023-01-23T06:21:32.474Z,4.68
2023-01-23T06:24:01.241Z,11.88
2023-01-23T06:26:32.240Z,5.60
2023-01-23T06:29:00.513Z,4.13
2023-01-23T06:31:32.670Z,2.33
2023-01-23T06:34:03.617Z,7.80
2023-01-23T06:36:34.212Z,6.55
2023-01-23T06:39:02.750Z,5.43
2023-01-23T06:41:31.248Z,3.42
2023-01-23T06:43:59.512Z,3.72
2023-01-23T06:46:27.929Z,3.38
2023-01-23T06:48:56.508Z,3.40
2023-01-23T06:51:28.145Z,2.45
2023-01-23T06:54:01.019Z,3.60
2023-01-23T06:56:29.485Z,5.22
2023-01-23T06:59:01.339Z,3.92
2023-01-23T07:01:29.840Z,3.97
2023-01-23T07:03:57.975Z,6.85
2023-01-23T07:06:26.221Z,6.30
2023-01-23T07:08:56.328Z,5.63
2023-01-23T07:13:54.131Z,3.22
2023-01-23T07:16:23.022Z,4.70
2023-01-23T07:18:51.569Z,10.77
2023-01-23T07:21:19.932Z,2.72
2023-01-23T07:23:48.193Z,4.13
2023-01-23T07:26:16.480Z,6.75
2023-01-23T07:28:46.150Z,5.00
2023-01-23T07:31:19.173Z,8.40
2023-01-23T07:33:47.626Z,5.13
2023-01-23T07:36:16.097Z,5.15
2023-01-23T07:38:44.334Z,7.43
2023-01-23T07:41:12.868Z,7.10
2023-01-23T07:43:42.083Z,4.10
2023-01-23T07:46:11.727Z,4.90
2023-01-23T07:48:40.253Z,4.57
2023-01-23T07:51:08.684Z,6.22
2023-01-23T07:53:37.465Z,5.18
2023-01-23T07:56:06.568Z,3.60
2023-01-23T07:58:35.482Z,11.35
2023-01-23T08:01:09.983Z,6.20
2023-01-23T08:03:39.977Z,5.28
2023-01-23T08:06:09.144Z,7.00
2023-01-23T08:08:37.642Z,8.48
2023-01-23T08:11:10.370Z,7.72
2023-01-23T08:13:38.801Z,4.18
2023-01-23T08:16:08.023Z,12.68
2023-01-23T08:18:36.685Z,4.97
2023-01-23T08:21:09.207Z,13.88
2023-01-23T08:23:37.741Z,7.53
2023-01-23T08:26:08.651Z,9.48
2023-01-23T08:28:37.518Z,4.55
2023-01-23T08:31:08.111Z,6.53
2023-01-23T08:33:38.858Z,7.55
2023-01-23T08:36:11.320Z,5.05
2023-01-23T08:38:39.742Z,6.10
2023-01-23T08:41:10.057Z,9.65
2023-01-23T08:43:38.681Z,4.75
2023-01-23T08:46:07.307Z,10.45
2023-01-23T08:48:36.048Z,3.97
2023-01-23T08:51:11.511Z,11.82
2023-01-23T08:53:40.330Z,10.13
2023-01-23T08:56:12.064Z,5.47
2023-01-23T08:58:40.220Z,7.45
2023-01-23T09:01:12.888Z,9.82
2023-01-23T09:03:41.498Z,3.25
2023-01-23T09:06:12.473Z,10.85
2023-01-23T09:08:40.992Z,5.32
2023-01-23T09:11:11.700Z,8.27
2023-01-23T09:13:40.573Z,4.15
2023-01-23T09:16:10.231Z,7.60
2023-01-23T09:18:38.895Z,5.85
2023-01-23T09:21:09.124Z,5.70
2023-01-23T09:23:39.590Z,8.27
2023-01-23T09:26:09.406Z,7.82
2023-01-23T09:28:38.186Z,7.63
2023-01-23T09:31:11.089Z,9.32
2023-01-23T09:33:39.483Z,8.38
2023-01-23T09:36:08.743Z,11.25
2023-01-23T09:38:38.499Z,4.03
2023-01-23T09:41:12.808Z,4.57
2023-01-23T09:43:52.150Z,11.10
2023-01-23T09:46:25.015Z,8.18
2023-01-23T09:48:58.274Z,7.82
2023-01-23T09:51:31.015Z,6.63
2023-01-23T09:54:08.453Z,10.75
2023-01-23T09:56:41.802Z,5.28
2023-01-23T09:59:18.316Z,7.05
2023-01-23T10:01:46.583Z,6.20
2023-01-23T10:04:19.637Z,6.68
2023-01-23T10:07:18.337Z,7.72
2023-01-23T10:10:06.960Z,6.97
2023-01-23T10:12:45.540Z,13.27
2023-01-23T10:15:27.614Z,6.72
2023-01-23T10:18:08.686Z,8.00
2023-01-23T10:21:02.524Z,6.35
2023-01-23T10:23:53.071Z,4.85
2023-01-23T10:26:25.437Z,7.05
2023-01-23T10:28:58.924Z,6.28
2023-01-23T10:31:38.075Z,6.32
2023-01-23T10:34:16.686Z,7.38
2023-01-23T10:36:56.544Z,6.22
2023-01-23T10:39:29.263Z,4.72
2023-01-23T10:42:04.255Z,8.52
2023-01-23T10:44:35.449Z,5.95
2023-01-23T10:47:07.969Z,6.07
2023-01-23T10:49:39.269Z,4.68
2023-01-23T10:52:31.668Z,6.97
2023-01-23T10:55:07.665Z,9.43
2023-01-23T10:57:48.580Z,9.80
2023-01-23T11:00:27.151Z,7.05
2023-01-23T11:02:55.655Z,5.13
2023-01-23T11:05:50.683Z,13.10
2023-01-23T11:08:25.506Z,9.68
2023-01-23T11:10:53.795Z,12.63
2023-01-23T11:13:30.816Z,6.65
2023-01-23T11:15:59.172Z,6.22
2023-01-23T11:18:34.278Z,9.73
2023-01-23T11:21:03.462Z,5.35
2023-01-23T11:23:32.201Z,9.82
2023-01-23T11:26:00.882Z,10.70
2023-01-23T11:28:34.991Z,8.48
2023-01-23T11:31:14.694Z,7.50
2023-01-23T11:33:55.163Z,7.72
2023-01-23T11:36:49.852Z,9.30
2023-01-23T11:39:37.329Z,8.40
2023-01-23T11:42:05.959Z,8.38
2023-01-23T11:44:45.650Z,6.40
2023-01-23T11:47:47.983Z,6.80
2023-01-23T11:50:29.726Z,9.88
2023-01-23T11:53:04.504Z,4.32
2023-01-23T11:55:46.341Z,7.82
2023-01-23T11:58:49.170Z,4.78
2023-01-23T12:01:25.991Z,4.97
2023-01-23T12:04:37.142Z,11.55
2023-01-23T12:07:18.762Z,3.92
2023-01-23T12:09:59.721Z,7.28
2023-01-23T12:12:52.382Z,3.35
2023-01-23T12:15:33.748Z,4.90
2023-01-23T12:18:14.724Z,6.20
2023-01-23T12:20:53.760Z,3.63
2023-01-23T12:23:38.664Z,7.20
2023-01-23T12:26:14.779Z,5.10
2023-01-23T12:29:29.592Z,6.18
2023-01-23T12:32:17.127Z,3.78
2023-01-23T12:35:03.483Z,6.85
2023-01-23T12:37:47.317Z,9.75
2023-01-23T12:40:22.731Z,10.20
2023-01-23T12:42:56.919Z,6.80
2023-01-23T12:45:28.467Z,6.22
2023-01-23T12:48:04.606Z,8.30
2023-01-23T12:50:45.094Z,5.90
2023-01-23T12:53:15.969Z,10.77
2023-01-23T12:55:54.675Z,4.88
2023-01-23T12:58:25.099Z,7.07
2023-01-23T13:01:11.914Z,3.80
2023-01-23T13:04:04.202Z,6.07
2023-01-23T13:06:52.035Z,5.70
2023-01-23T13:09:30.056Z,4.93
2023-01-23T13:12:11.831Z,5.25
2023-01-23T13:15:06.764Z,2.70
2023-01-23T13:17:38.908Z,3.92
2023-01-23T13:20:42.620Z,6.63
2023-01-23T13:23:31.062Z,9.85
2023-01-23T13:26:29.465Z,6.70
2023-01-23T13:29:01.614Z,5.20
2023-01-23T13:31:37.471Z,3.65
2023-01-23T13:34:39.680Z,3.95
2023-01-23T13:37:35.011Z,5.78
2023-01-23T13:40:16.329Z,5.90
2023-01-23T13:42:45.439Z,12.82
2023-01-23T13:45:27.326Z,6.85
2023-01-23T14:23:02.042Z,6.25
2023-01-23T14:25:30.467Z,5.13
2023-01-23T14:28:07.693Z,4.63
2023-01-23T14:30:37.313Z,9.18
2023-01-23T14:33:12.769Z,8.70
2023-01-23T14:35:41.552Z,6.25
2023-01-23T14:38:09.892Z,4.43
2023-01-23T14:40:50.774Z,10.70
2023-01-23T14:43:22.754Z,3.78
2023-01-23T14:46:03.619Z,6.93
2023-01-23T14:48:36.451Z,5.20
2023-01-23T14:51:08.637Z,2.28
2023-01-23T14:53:41.045Z,2.67
2023-01-23T14:56:12.386Z,2.80
2023-01-23T14:58:41.275Z,1.92
2023-01-23T15:01:12.666Z,2.60
2023-01-23T15:03:43.688Z,3.85
2023-01-23T15:06:17.103Z,5.63
2023-01-23T15:08:48.118Z,1.58
2023-01-23T15:11:16.857Z,3.25
2023-01-23T15:13:51.918Z,6.90
2023-01-23T15:16:24.305Z,7.20
2023-01-23T15:19:01.186Z,2.92
2023-01-23T15:21:34.596Z,2.63
2023-01-23T15:24:22.078Z,3.80
2023-01-23T15:27:03.688Z,3.22
2023-01-23T15:29:33.063Z,2.10
2023-01-23T15:32:03.571Z,4.40
2023-01-23T15:34:35.239Z,3.88
2023-01-23T15:37:07.161Z,3.67
2023-01-23T15:39:40.156Z,8.68
2023-01-23T15:42:26.389Z,5.60
2023-01-23T15:44:54.732Z,3.95
2023-01-23T15:47:24.639Z,3.33
2023-01-23T15:49:53.117Z,6.57
2023-01-23T15:52:24.159Z,8.85
2023-01-23T15:54:54.318Z,8.25
2023-01-23T16:03:15.160Z,3.72
2023-01-23T16:05:47.653Z,11.45
2023-01-23T16:08:25.518Z,3.13
2023-01-23T16:11:01.316Z,4.97
2023-01-23T16:21:12.371Z,6.85
2023-01-23T16:23:47.261Z,6.57
2023-01-23T16:26:20.312Z,5.55
2023-01-23T16:28:48.786Z,8.10
2023-01-23T16:31:20.350Z,5.15
2023-01-23T16:34:01.287Z,13.73
2023-01-23T16:36:54.006Z,12.73
2023-01-23T16:39:33.973Z,12.13
2023-01-23T16:42:06.698Z,10.93
2023-01-23T16:44:34.952Z,9.75
2023-01-23T16:47:12.064Z,18.90
2023-01-23T16:49:52.101Z,11.25
2023-01-23T16:52:26.547Z,11.02
2023-01-23T16:54:55.984Z,9.98
2023-01-23T16:57:25.189Z,10.18
2023-01-23T16:59:57.701Z,13.45
2023-01-23T17:02:30.421Z,14.23
2023-01-23T17:05:03.271Z,10.70
2023-01-23T17:07:36.442Z,12.43
2023-01-23T17:10:17.873Z,12.68
2023-01-23T17:12:48.751Z,12.43
2023-01-23T17:15:27.589Z,19.30
2023-01-23T17:17:59.817Z,15.93
2023-01-23T17:20:58.055Z,11.60
2023-01-23T17:23:31.156Z,16.02
2023-01-23T17:26:11.251Z,26.42
2023-01-23T17:28:47.433Z,16.17
2023-01-23T17:31:23.406Z,16.63
2023-01-23T17:33:55.890Z,18.38
2023-01-23T17:36:26.413Z,19.75
2023-01-23T17:38:58.881Z,20.00
2023-01-23T17:41:29.846Z,24.63
2023-01-23T17:44:06.841Z,25.45
2023-01-23T17:46:37.747Z,27.00
2023-01-23T17:49:27.459Z,23.50
2023-01-23T17:51:58.330Z,25.42
2023-01-23T17:54:28.075Z,24.90
2023-01-23T17:57:06.172Z,25.50
2023-01-23T17:59:35.798Z,34.28
2023-01-23T18:02:11.708Z,39.80
2023-01-23T18:04:44.796Z,38.13
2023-01-23T18:07:16.399Z,42.00
2023-01-23T18:09:47.525Z,42.00
2023-01-23T18:12:31.447Z,22.30
2023-01-23T18:15:10.456Z,26.88
2023-01-23T18:17:52.149Z,33.47
2023-01-23T18:20:25.463Z,26.35
2023-01-23T18:22:57.541Z,23.92
2023-01-23T18:25:28.236Z,16.95
2023-01-23T18:27:59.699Z,26.42
2023-01-23T18:30:43.228Z,18.38
2023-01-23T18:33:33.611Z,13.65
2023-01-23T18:36:17.763Z,29.75
2023-01-23T18:39:17.457Z,34.03
2023-01-23T18:42:15.621Z,31.52
2023-01-23T18:44:54.256Z,38.67
2023-01-23T18:47:22.756Z,30.00
2023-01-23T18:49:51.683Z,22.45
2023-01-23T18:52:29.122Z,33.20
2023-01-23T18:55:14.025Z,30.42
2023-01-23T18:58:03.786Z,27.52
2023-01-23T19:00:56.930Z,24.73
2023-01-23T19:03:40.732Z,18.42
2023-01-23T19:06:23.533Z,22.83
2023-01-23T19:08:55.061Z,25.98
2023-01-23T19:11:34.825Z,19.42
2023-01-23T19:14:13.380Z,15.75
2023-01-23T19:16:49.362Z,19.17
2023-01-23T19:19:26.998Z,20.55
2023-01-23T19:21:57.931Z,29.30
2023-01-23T19:24:28.283Z,24.85
2023-01-23T19:26:57.306Z,20.27
2023-01-23T19:29:27.276Z,21.52
2023-01-23T19:32:06.036Z,18.10
2023-01-23T19:34:36.241Z,22.33
2023-01-23T19:37:08.383Z,24.90
2023-01-23T19:39:36.613Z,28.02
2023-01-23T19:42:05.593Z,22.35
2023-01-23T19:44:35.769Z,26.00
2023-01-23T19:49:35.288Z,15.30
2023-01-23T19:52:03.884Z,17.95
2023-01-23T19:54:32.075Z,19.95
2023-01-23T19:57:00.591Z,16.90
2023-01-23T19:59:28.946Z,15.10
2023-01-23T20:02:17.445Z,11.35
2023-01-23T20:04:45.735Z,67.30
2023-01-23T20:07:18.377Z,25.70
2023-01-23T20:09:46.645Z,19.83
2023-01-23T20:12:16.484Z,26.05
2023-01-23T20:14:47.356Z,13.35
2023-01-23T20:17:16.843Z,9.52
2023-01-23T20:19:46.758Z,4.40
2023-01-23T20:22:15.149Z,7.43
2023-01-23T20:24:43.432Z,10.65
2023-01-23T20:27:11.496Z,11.15
2023-01-23T20:29:39.798Z,11.38
2023-01-23T20:32:08.339Z,10.90
2023-01-23T20:34:40.053Z,13.63
2023-01-23T20:37:08.200Z,26.73
2023-01-23T20:39:36.458Z,26.02
2023-01-23T20:42:05.245Z,33.83
2023-01-23T20:44:33.418Z,50.10
2023-01-23T20:47:01.831Z,36.45
2023-01-23T20:49:30.083Z,32.22
2023-01-23T20:52:19.800Z,33.70
2023-01-23T20:54:48.500Z,32.00
2023-01-23T20:57:17.296Z,37.17
2023-01-23T20:59:58.169Z,41.22
2023-01-23T21:02:29.591Z,84.05
2023-01-23T21:05:10.072Z,47.33
2023-01-23T21:07:40.476Z,31.90
2023-01-23T21:10:30.301Z,34.40
2023-01-23T21:13:00.923Z,37.65
2023-01-23T21:15:36.781Z,33.78
2023-01-23T21:18:43.737Z,38.50
2023-01-23T21:21:29.313Z,32.90
2023-01-23T21:24:07.608Z,26.40
2023-01-23T21:26:44.079Z,26.45
2023-01-23T21:29:23.700Z,22.70
2023-01-23T21:32:07.041Z,25.70
2023-01-23T21:34:38.911Z,33.00
2023-01-23T21:37:11.487Z,29.55
2023-01-23T21:42:54.250Z,23.70
2023-01-23T21:45:28.317Z,20.52
2023-01-23T21:47:59.775Z,23.52
2023-01-23T21:50:30.691Z,30.98
2023-01-23T21:53:01.703Z,27.98
2023-01-23T21:55:39.840Z,30.05
2023-01-23T21:58:08.432Z,33.65
2023-01-23T22:00:59.178Z,29.70
2023-01-23T22:03:39.591Z,24.20
2023-01-23T22:06:16.355Z,27.80
2023-01-23T22:08:57.027Z,25.90
2023-01-23T22:11:55.786Z,24.70
2023-01-23T22:14:29.255Z,28.00
2023-01-23T22:17:05.259Z,37.72
2023-01-23T22:19:45.444Z,22.33
2023-01-23T22:24:46.606Z,28.45
2023-01-23T22:27:27.092Z,30.20
2023-01-23T22:30:01.258Z,28.35
2023-01-23T22:32:36.127Z,22.10
2023-01-23T22:35:11.353Z,18.20
2023-01-23T22:37:43.104Z,28.75
2023-01-23T22:40:12.928Z,15.80
2023-01-23T22:42:44.165Z,20.13
2023-01-23T22:45:23.788Z,17.90
2023-01-23T22:48:20.425Z,19.58
2023-01-23T22:50:57.763Z,22.23
2023-01-23T22:53:45.239Z,19.35
2023-01-23T22:56:17.220Z,28.20
2023-01-23T22:58:51.127Z,21.13
2023-01-23T23:01:28.257Z,22.52
2023-01-23T23:03:58.947Z,27.52
2023-01-23T23:06:32.383Z,26.30
2023-01-23T23:09:01.868Z,24.10
2023-01-23T23:11:30.777Z,35.22
2023-01-23T23:14:04.462Z,33.75
2023-01-23T23:16:43.568Z,34.55
2023-01-23T23:19:18.015Z,25.25
2023-01-23T23:21:58.077Z,19.70
2023-01-23T23:24:30.177Z,19.70
2023-01-23T23:27:11.323Z,18.25
2023-01-23T23:29:40.082Z,17.08
2023-01-23T23:32:15.108Z,18.55
2023-01-23T23:34:47.134Z,19.05
2023-01-23T23:37:16.988Z,18.75
2023-01-23T23:39:52.636Z,20.27
2023-01-23T23:42:28.146Z,24.23
2023-01-23T23:44:59.337Z,17.48
2023-01-23T23:47:36.279Z,23.33
2023-01-23T23:50:11.838Z,16.67
2023-01-23T23:52:52.527Z,19.58
2023-01-23T23:55:29.409Z,22.17
2023-01-23T23:57:59.115Z,20.30
